Viking Star — LAIW6 — position and weather

sailwx.info

Track history (hours):
 
Tides and Currents Weather Stations Pressure Air Temp Water Temp Dewpoint Dewpoint Depression Visibility Wind Speed Wind Dir Waves Ship Positions

Viking Star

Last reported at 2019-Jun-16 03:04 UTC. Time now 2019-Jun-16 15:10 UTC.
Position N 43°10' E 015°60'.

Length 228 m; draft 6.7 m.

Type: Passenger vessel. MMSI: 257903000.

Date/timePositionNaut miles runAvg speedWind from/ knotsBaromVisibWave heightAir tempDewpointWater temp
2019-Jun-16 03:04N 43°10' E 015°60'116.0
2019-Jun-16 02:59N 43°09' E 015°59'  
2019-Jun-13 15:19N 38°18' E 017°17'1914.1
2019-Jun-13 13:58N 38°11' E 016°55'1014.0
2019-Jun-13 13:16N 38°07' E 016°43'4212.9
2019-Jun-13 09:58N 37°53' E 015°53'612.8
2019-Jun-13 09:30N 37°53' E 015°45'612.6
2019-Jun-13 09:00N 37°56' E 015°38'611.6
2019-Jun-13 08:29N 38°01' E 015°35'713.6
2019-Jun-13 08:00N 38°08' E 015°35'714.5
2019-Jun-13 07:30N 38°15' E 015°38'611.8
2019-Jun-13 07:00N 38°21' E 015°38'611.5
2019-Jun-13 06:30N 38°25' E 015°33'714.6
2019-Jun-13 06:00N 38°30' E 015°27'917.1
2019-Jun-13 05:30N 38°37' E 015°20'917.4
2019-Jun-13 05:00N 38°43' E 015°12'8 9.8
2019-Jun-13 04:13N 38°51' E 015°11'315.3
2019-Jun-13 04:00N 38°54' E 015°09'5514.7
2019-Jun-13 00:18N 39°43' E 014°38'514.4
2019-Jun-12 23:59N 39°47' E 014°36'714.6
2019-Jun-12 23:30N 39°53' E 014°32'714.6
2019-Jun-12 23:00N 39°60' E 014°28'714.9
2019-Jun-12 22:30N 40°07' E 014°24'815.0
2019-Jun-12 22:00N 40°14' E 014°20'714.8
2019-Jun-12 21:30N 40°20' E 014°16'815.2
2019-Jun-12 21:00N 40°27' E 014°11'815.5
2019-Jun-12 20:30N 40°35' E 014°09'815.4
2019-Jun-12 20:00N 40°42' E 014°13'714.4
2019-Jun-12 19:30N 40°48' E 014°17'2 3.9
2019-Jun-12 18:57N 40°51' E 014°16'0 0.0
2019-Jun-12 18:27N 40°51' E 014°16'0 0.0
2019-Jun-12 17:48N 40°51' E 014°16'0 0.0
2019-Jun-12 17:27N 40°51' E 014°16'0 0.0
2019-Jun-12 16:57N 40°51' E 014°16'0 0.0
2019-Jun-12 16:30N 40°51' E 014°16'0 0.0
2019-Jun-12 15:57N 40°51' E 014°16'0 0.0
2019-Jun-12 15:21N 40°51' E 014°16'0 0.0
2019-Jun-12 14:51N 40°51' E 014°16'0 0.0
2019-Jun-12 14:21N 40°51' E 014°16'0 0.0
2019-Jun-12 14:00N 40°51' E 014°16'0 0.0
2019-Jun-12 13:21N 40°51' E 014°16'0 0.0
2019-Jun-12 12:51N 40°51' E 014°16'0 0.0
2019-Jun-12 12:21N 40°51' E 014°16'0 0.0
2019-Jun-12 11:51N 40°51' E 014°16'0 0.0
2019-Jun-12 11:21N 40°51' E 014°16'0 0.0
2019-Jun-12 10:51N 40°51' E 014°16'0 0.0
2019-Jun-12 10:21N 40°51' E 014°16'0 0.0
2019-Jun-12 10:00N 40°51' E 014°16'0 0.9
2019-Jun-12 09:30N 40°50' E 014°16'4 7.4
2019-Jun-12 09:01N 40°47' E 014°17'713.6
2019-Jun-12 08:31N 40°41' E 014°11'713.8
2019-Jun-12 08:00N 40°38' E 014°04'714.0
2019-Jun-12 07:30N 40°38' E 013°54'714.1
2019-Jun-12 07:00N 40°38' E 013°45'714.3
2019-Jun-12 06:30N 40°40' E 013°36'714.4
2019-Jun-12 06:00N 40°41' E 013°27'714.4
2019-Jun-12 05:30N 40°43' E 013°17'714.6
2019-Jun-12 05:00N 40°45' E 013°08'714.3
2019-Jun-12 04:30N 40°47' E 012°59'714.2
2019-Jun-12 03:59N 40°49' E 012°49'1714.3
2019-Jun-12 02:49N 41°01' E 012°35'614.2
2019-Jun-12 02:25N 41°06' E 012°30'1314.2
2019-Jun-12 01:30N 41°16' E 012°19'714.4
2019-Jun-12 01:00N 41°21' E 012°13'814.4
2019-Jun-12 00:28N 41°27' E 012°07'814.3
2019-Jun-11 23:55N 41°33' E 011°60'614.3
2019-Jun-11 23:31N 41°38' E 011°55'1813.9
2019-Jun-11 22:15N 41°52' E 011°41'314.0
2019-Jun-11 22:00N 41°55' E 011°41'714.1
2019-Jun-11 21:30N 42°02' E 011°40'6 2.4
2019-Jun-11 18:59N 42°06' E 011°47'0 0.0
2019-Jun-11 18:20N 42°06' E 011°47'55 3.0
2019-Jun-11 00:14N 42°23' E 010°37'415.9
2019-Jun-10 23:59N 42°26' E 010°33'1015.0
2019-Jun-10 23:19N 42°32' E 010°22'413.9
2019-Jun-10 22:59N 42°35' E 010°17'713.9
2019-Jun-10 22:28N 42°39' E 010°10'3613.4
2019-Jun-10 19:45N 43°16' E 010°10'414.6
2019-Jun-10 19:30N 43°19' E 010°10'714.5
2019-Jun-10 19:00N 43°26' E 010°13'611.2
2019-Jun-10 18:30N 43°32' E 010°15'3 5.8
2019-Jun-10 18:01N 43°33' E 010°18'0 0.2
2019-Jun-10 17:29N 43°34' E 010°18'0 0.0
2019-Jun-10 16:59N 43°34' E 010°18'0 0.0
2019-Jun-10 16:29N 43°34' E 010°18'0 0.0
2019-Jun-10 15:56N 43°34' E 010°18'0 0.0
2019-Jun-10 15:28N 43°34' E 010°18'0 0.0
2019-Jun-10 14:56N 43°34' E 010°18'0 0.0
2019-Jun-10 14:25N 43°34' E 010°18'0 0.0
2019-Jun-10 14:00N 43°34' E 010°18'0 0.0
2019-Jun-10 13:30N 43°34' E 010°18'0 0.0
2019-Jun-10 12:59N 43°34' E 010°18'0 0.0
2019-Jun-10 12:26N 43°34' E 010°18'0 0.0
2019-Jun-10 11:59N 43°34' E 010°18'0 0.0
2019-Jun-10 11:29N 43°34' E 010°18'0 0.0
2019-Jun-10 10:56N 43°34' E 010°18'0 0.0
2019-Jun-10 10:26N 43°34' E 010°18'0 0.0
2019-Jun-10 09:59N 43°34' E 010°18'0 0.0
2019-Jun-10 09:29N 43°34' E 010°18'0 0.0
2019-Jun-10 08:59N 43°34' E 010°18'0 0.0
2019-Jun-10 08:29N 43°34' E 010°18'0 0.0
2019-Jun-10 07:59N 43°34' E 010°18'0 0.0
2019-Jun-10 07:29N 43°34' E 010°18'0 0.0
2019-Jun-10 06:56N 43°34' E 010°18'0 0.0
2019-Jun-10 06:26N 43°34' E 010°18'0 0.0
2019-Jun-10 05:59N 43°34' E 010°18'0 0.2
2019-Jun-10 05:30N 43°33' E 010°18'3 6.0
2019-Jun-10 05:00N 43°31' E 010°15'510.5
2019-Jun-10 04:30N 43°29' E 010°08'612.8
2019-Jun-10 04:00N 43°30' E 009°60'612.9
2019-Jun-10 03:30N 43°31' E 009°51'612.7
2019-Jun-10 03:00N 43°32' E 009°42'612.6
2019-Jun-10 02:30N 43°32' E 009°33'713.1
2019-Jun-10 02:00N 43°33' E 009°24'713.3
2019-Jun-10 01:30N 43°34' E 009°15'713.8
2019-Jun-10 01:00N 43°34' E 009°06'713.5
2019-Jun-10 00:30N 43°35' E 008°57'713.3
2019-Jun-10 00:00N 43°35' E 008°47'713.3
2019-Jun-09 23:30N 43°36' E 008°38'612.9
2019-Jun-09 23:00N 43°36' E 008°29'612.2
2019-Jun-09 22:30N 43°37' E 008°21'612.0
2019-Jun-09 22:00N 43°38' E 008°13'611.9
2019-Jun-09 21:30N 43°38' E 008°04'611.8
2019-Jun-09 21:00N 43°39' E 007°56'611.9
2019-Jun-09 20:30N 43°40' E 007°48'611.8
2019-Jun-09 20:00N 43°42' E 007°40'612.0
2019-Jun-09 19:30N 43°43' E 007°32'5 9.5
2019-Jun-09 19:00N 43°44' E 007°26'0 0.2
2019-Jun-09 18:28N 43°44' E 007°26'0 0.0
2019-Jun-09 17:58N 43°44' E 007°26'0 0.0
2019-Jun-09 17:22N 43°44' E 007°26'0 0.0
2019-Jun-09 16:52N 43°44' E 007°26'0 0.0
2019-Jun-09 16:28N 43°44' E 007°26'0 0.0
2019-Jun-09 15:58N 43°44' E 007°26'0 0.0
2019-Jun-09 15:22N 43°44' E 007°26'0 0.0
2019-Jun-09 14:58N 43°44' E 007°26'0 0.0
2019-Jun-09 14:28N 43°44' E 007°26'0 0.0
2019-Jun-09 13:46N 43°44' E 007°26'0 0.0
2019-Jun-09 13:28N 43°44' E 007°26'0 0.0
2019-Jun-09 12:58N 43°44' E 007°26'0 0.0
2019-Jun-09 12:28N 43°44' E 007°26'0 0.0
2019-Jun-09 11:52N 43°44' E 007°26'0 0.0
2019-Jun-09 11:28N 43°44' E 007°26'0 0.0
2019-Jun-09 10:58N 43°44' E 007°26'0 0.0
2019-Jun-09 10:10N 43°44' E 007°26'0 0.0
2019-Jun-09 09:46N 43°44' E 007°26'0 0.0
2019-Jun-09 09:28N 43°44' E 007°26'0 0.0
2019-Jun-09 08:58N 43°44' E 007°26'0 0.0
2019-Jun-09 08:22N 43°44' E 007°26'0 0.0
2019-Jun-09 07:58N 43°44' E 007°26'0 0.0
2019-Jun-09 07:28N 43°44' E 007°26'0 0.0
2019-Jun-09 06:58N 43°44' E 007°26'0 0.0
2019-Jun-09 06:22N 43°44' E 007°26'0 0.0
2019-Jun-09 06:00N 43°44' E 007°26'0 0.4
2019-Jun-09 05:30N 43°44' E 007°26'4 7.3
2019-Jun-09 05:00N 43°41' E 007°27'1010.5
2019-Jun-09 04:00N 43°32' E 007°19'510.3
2019-Jun-09 03:30N 43°28' E 007°14'510.5
2019-Jun-09 03:01N 43°24' E 007°09'510.5
2019-Jun-09 02:31N 43°20' E 007°04'510.6
2019-Jun-09 02:00N 43°17' E 006°59'510.8
2019-Jun-09 01:30N 43°13' E 006°54'511.0
2019-Jun-09 01:00N 43°09' E 006°49'510.8
2019-Jun-09 00:30N 43°05' E 006°44'510.7
2019-Jun-09 00:00N 43°01' E 006°39'510.5
2019-Jun-08 23:31N 42°57' E 006°34'510.5
2019-Jun-08 23:00N 42°54' E 006°28'510.5
2019-Jun-08 22:30N 42°54' E 006°21'510.1
2019-Jun-08 21:59N 42°54' E 006°14'510.3
2019-Jun-08 21:30N 42°54' E 006°07'510.4
2019-Jun-08 21:00N 42°55' E 006°00'610.5
2019-Jun-08 20:29N 42°56' E 005°53'510.4
2019-Jun-08 20:00N 42°57' E 005°46'2611.3
2019-Jun-08 17:43N 43°08' E 005°15'312.1
2019-Jun-08 17:29N 43°10' E 005°11'511.2
2019-Jun-08 17:00N 43°15' E 005°09'612.2
2019-Jun-08 16:30N 43°19' E 005°15'4 7.3
2019-Jun-08 15:57N 43°21' E 005°20'0 0.0
2019-Jun-08 15:12N 43°21' E 005°20'0 0.0
2019-Jun-08 15:00N 43°21' E 005°20'0 0.0
2019-Jun-08 14:18N 43°21' E 005°20'0 0.0
2019-Jun-08 13:48N 43°21' E 005°20'0 0.0
2019-Jun-08 13:18N 43°21' E 005°20'0 0.0
2019-Jun-08 13:00N 43°21' E 005°20'0 0.0
2019-Jun-08 12:30N 43°21' E 005°20'0 0.0
2019-Jun-08 11:48N 43°21' E 005°20'0 0.0
2019-Jun-08 11:18N 43°21' E 005°20'0 0.0
2019-Jun-08 10:48N 43°21' E 005°20'0 0.0
2019-Jun-08 10:24N 43°21' E 005°20'0 0.0
2019-Jun-08 09:54N 43°21' E 005°20'0 0.0
2019-Jun-08 09:24N 43°21' E 005°20'0 0.0
2019-Jun-08 08:54N 43°21' E 005°20'0 0.0
2019-Jun-08 08:24N 43°21' E 005°20'0 0.0
2019-Jun-08 08:00N 43°21' E 005°20'0 0.0
2019-Jun-08 07:24N 43°21' E 005°20'0 0.0
2019-Jun-08 06:54N 43°21' E 005°20'0 0.0
2019-Jun-08 06:24N 43°21' E 005°20'0 0.0
2019-Jun-08 05:57N 43°21' E 005°20'0 0.0
2019-Jun-08 05:30N 43°21' E 005°20'0 0.5
2019-Jun-08 05:01N 43°21' E 005°20'4 7.2
2019-Jun-08 04:28N 43°19' E 005°15'511.9
2019-Jun-08 04:00N 43°15' E 005°11'713.3
2019-Jun-08 03:31N 43°09' E 005°07'14215.7
2019-Jun-07 18:29N 41°32' E 002°46'816.9
2019-Jun-07 18:00N 41°28' E 002°37'917.3
2019-Jun-07 17:30N 41°24' E 002°27'917.1
2019-Jun-07 17:00N 41°20' E 002°17'5 9.6
2019-Jun-07 16:30N 41°22' E 002°11'0 0.9
2019-Jun-07 16:00N 41°22' E 002°11'0 0.0
2019-Jun-07 15:30N 41°22' E 002°11'0 0.0
2019-Jun-07 15:00N 41°22' E 002°11'0 0.0
2019-Jun-07 14:30N 41°22' E 002°11'0 0.0
2019-Jun-07 14:00N 41°22' E 002°11'0 0.0
2019-Jun-07 13:24N 41°22' E 002°11'0 0.0
2019-Jun-07 13:00N 41°22' E 002°11'0 0.0
2019-Jun-07 12:30N 41°22' E 002°11'0 0.0
2019-Jun-07 12:00N 41°22' E 002°11'0 0.0
2019-Jun-07 11:27N 41°22' E 002°11'0 0.0
2019-Jun-07 10:57N 41°22' E 002°11'0 0.0
2019-Jun-07 10:27N 41°22' E 002°11'0 0.0
2019-Jun-07 10:00N 41°22' E 002°11'0 0.0
2019-Jun-07 09:27N 41°22' E 002°11'0 0.0
2019-Jun-07 08:57N 41°22' E 002°11'0 0.0
2019-Jun-07 08:30N 41°22' E 002°11'0 0.0
2019-Jun-07 08:00N 41°22' E 002°11'0 0.0
2019-Jun-07 07:27N 41°22' E 002°11'0 0.0
2019-Jun-07 07:00N 41°22' E 002°11'0 0.0
2019-Jun-07 06:27N 41°22' E 002°11'0 0.0
2019-Jun-07 06:00N 41°22' E 002°11'0 0.0
2019-Jun-07 05:30N 41°22' E 002°11'0 0.0
2019-Jun-07 05:00N 41°22' E 002°11'0 0.0
2019-Jun-07 04:30N 41°22' E 002°11'0 0.0
2019-Jun-07 04:00N 41°22' E 002°11'0 0.0
2019-Jun-07 03:30N 41°22' E 002°11'0 0.0
2019-Jun-07 02:57N 41°22' E 002°11'0 0.0
2019-Jun-07 02:30N 41°22' E 002°11'0 0.0
2019-Jun-07 01:48N 41°22' E 002°11'0 0.0
2019-Jun-07 01:30N 41°22' E 002°11'0 0.0
2019-Jun-07 01:00N 41°22' E 002°11'0 0.0
2019-Jun-07 00:30N 41°22' E 002°11'0 0.0
2019-Jun-06 23:51N 41°22' E 002°11'0 0.0
2019-Jun-06 23:30N 41°22' E 002°11'0 0.0
2019-Jun-06 23:00N 41°22' E 002°11'0 0.0
2019-Jun-06 22:27N 41°22' E 002°11'0 0.0
2019-Jun-06 22:00N 41°22' E 002°11'0 0.0
2019-Jun-06 21:30N 41°22' E 002°11'0 0.0
2019-Jun-06 21:00N 41°22' E 002°11'0 0.0
2019-Jun-06 20:27N 41°22' E 002°11'0 0.0
2019-Jun-06 20:00N 41°22' E 002°11'0 0.0
2019-Jun-06 19:30N 41°22' E 002°11'0 0.0
2019-Jun-06 19:00N 41°22' E 002°11'0 0.0
2019-Jun-06 18:30N 41°22' E 002°11'0 0.0
2019-Jun-06 18:00N 41°22' E 002°11'0 0.0
2019-Jun-06 17:27N 41°22' E 002°11'0 0.0
2019-Jun-06 16:54N 41°22' E 002°11'0 0.0
2019-Jun-06 16:30N 41°22' E 002°11'0 0.0
2019-Jun-06 16:00N 41°22' E 002°11'0 0.0
2019-Jun-06 15:30N 41°22' E 002°11'0 0.0
2019-Jun-06 15:00N 41°22' E 002°11'0 0.0
2019-Jun-06 14:30N 41°22' E 002°11'0 0.0
2019-Jun-06 14:00N 41°22' E 002°11'0 0.0
2019-Jun-06 13:30N 41°22' E 002°11'0 0.0
2019-Jun-06 13:00N 41°22' E 002°11'0 0.0
2019-Jun-06 12:30N 41°22' E 002°11'0 0.0
2019-Jun-06 11:57N 41°22' E 002°11'0 0.0
2019-Jun-06 11:30N 41°22' E 002°11'0 0.0
2019-Jun-06 11:00N 41°22' E 002°11'0 0.0
2019-Jun-06 10:30N 41°22' E 002°11'0 0.0
2019-Jun-06 10:00N 41°22' E 002°11'0 0.0
2019-Jun-06 09:27N 41°22' E 002°11'0 0.0
2019-Jun-06 09:00N 41°22' E 002°11'0 0.0
2019-Jun-06 08:30N 41°22' E 002°11'0 0.0
2019-Jun-06 07:57N 41°22' E 002°11'0 0.0
2019-Jun-06 07:24N 41°22' E 002°11'0 0.0
2019-Jun-06 07:00N 41°22' E 002°11'0 0.0
2019-Jun-06 06:30N 41°22' E 002°11'0 0.0
2019-Jun-06 05:51N 41°22' E 002°11'0 0.0
2019-Jun-06 05:27N 41°22' E 002°11'0 0.0
2019-Jun-06 04:57N 41°22' E 002°11'0 0.0
2019-Jun-06 04:27N 41°22' E 002°11'0 0.0
2019-Jun-06 04:00N 41°22' E 002°11'0 0.0
2019-Jun-06 03:27N 41°22' E 002°11'  
Track history (hours):
 
Tides and Currents Weather Stations Pressure Air Temp Water Temp Dewpoint Dewpoint Depression Visibility Wind Speed Wind Dir Waves Ship Positions

Viking Star

Last reported at 2019-Jun-16 03:04 UTC. Time now 2019-Jun-16 15:10 UTC.
Position N 43°10' E 015°60'.

Length 228 m; draft 6.7 m.

Type: Passenger vessel. MMSI: 257903000.

Date/timePositionNaut miles runAvg speedWind from/ knotsBaromVisibWave heightAir tempDewpointWater temp
2019-Jun-16 03:04N 43°10' E 015°60'116.0
2019-Jun-16 02:59N 43°09' E 015°59'  
2019-Jun-13 15:19N 38°18' E 017°17'1914.1
2019-Jun-13 13:58N 38°11' E 016°55'1014.0
2019-Jun-13 13:16N 38°07' E 016°43'4212.9
2019-Jun-13 09:58N 37°53' E 015°53'612.8
2019-Jun-13 09:30N 37°53' E 015°45'612.6
2019-Jun-13 09:00N 37°56' E 015°38'611.6
2019-Jun-13 08:29N 38°01' E 015°35'713.6
2019-Jun-13 08:00N 38°08' E 015°35'714.5
2019-Jun-13 07:30N 38°15' E 015°38'611.8
2019-Jun-13 07:00N 38°21' E 015°38'611.5
2019-Jun-13 06:30N 38°25' E 015°33'714.6
2019-Jun-13 06:00N 38°30' E 015°27'917.1
2019-Jun-13 05:30N 38°37' E 015°20'917.4
2019-Jun-13 05:00N 38°43' E 015°12'8 9.8
2019-Jun-13 04:13N 38°51' E 015°11'315.3
2019-Jun-13 04:00N 38°54' E 015°09'5514.7
2019-Jun-13 00:18N 39°43' E 014°38'514.4
2019-Jun-12 23:59N 39°47' E 014°36'714.6
2019-Jun-12 23:30N 39°53' E 014°32'714.6
2019-Jun-12 23:00N 39°60' E 014°28'714.9
2019-Jun-12 22:30N 40°07' E 014°24'815.0
2019-Jun-12 22:00N 40°14' E 014°20'714.8
2019-Jun-12 21:30N 40°20' E 014°16'815.2
2019-Jun-12 21:00N 40°27' E 014°11'815.5
2019-Jun-12 20:30N 40°35' E 014°09'815.4
2019-Jun-12 20:00N 40°42' E 014°13'714.4
2019-Jun-12 19:30N 40°48' E 014°17'2 3.9
2019-Jun-12 18:57N 40°51' E 014°16'0 0.0
2019-Jun-12 18:27N 40°51' E 014°16'0 0.0
2019-Jun-12 17:48N 40°51' E 014°16'0 0.0
2019-Jun-12 17:27N 40°51' E 014°16'0 0.0
2019-Jun-12 16:57N 40°51' E 014°16'0 0.0
2019-Jun-12 16:30N 40°51' E 014°16'0 0.0
2019-Jun-12 15:57N 40°51' E 014°16'0 0.0
2019-Jun-12 15:21N 40°51' E 014°16'0 0.0
2019-Jun-12 14:51N 40°51' E 014°16'0 0.0
2019-Jun-12 14:21N 40°51' E 014°16'0 0.0
2019-Jun-12 14:00N 40°51' E 014°16'0 0.0
2019-Jun-12 13:21N 40°51' E 014°16'0 0.0
2019-Jun-12 12:51N 40°51' E 014°16'0 0.0
2019-Jun-12 12:21N 40°51' E 014°16'0 0.0
2019-Jun-12 11:51N 40°51' E 014°16'0 0.0
2019-Jun-12 11:21N 40°51' E 014°16'0 0.0
2019-Jun-12 10:51N 40°51' E 014°16'0 0.0
2019-Jun-12 10:21N 40°51' E 014°16'0 0.0
2019-Jun-12 10:00N 40°51' E 014°16'0 0.9
2019-Jun-12 09:30N 40°50' E 014°16'4 7.4
2019-Jun-12 09:01N 40°47' E 014°17'713.6
2019-Jun-12 08:31N 40°41' E 014°11'713.8
2019-Jun-12 08:00N 40°38' E 014°04'714.0
2019-Jun-12 07:30N 40°38' E 013°54'714.1
2019-Jun-12 07:00N 40°38' E 013°45'714.3
2019-Jun-12 06:30N 40°40' E 013°36'714.4
2019-Jun-12 06:00N 40°41' E 013°27'714.4
2019-Jun-12 05:30N 40°43' E 013°17'714.6
2019-Jun-12 05:00N 40°45' E 013°08'714.3
2019-Jun-12 04:30N 40°47' E 012°59'714.2
2019-Jun-12 03:59N 40°49' E 012°49'1714.3
2019-Jun-12 02:49N 41°01' E 012°35'614.2
2019-Jun-12 02:25N 41°06' E 012°30'1314.2
2019-Jun-12 01:30N 41°16' E 012°19'714.4
2019-Jun-12 01:00N 41°21' E 012°13'814.4
2019-Jun-12 00:28N 41°27' E 012°07'814.3
2019-Jun-11 23:55N 41°33' E 011°60'614.3
2019-Jun-11 23:31N 41°38' E 011°55'1813.9
2019-Jun-11 22:15N 41°52' E 011°41'314.0
2019-Jun-11 22:00N 41°55' E 011°41'714.1
2019-Jun-11 21:30N 42°02' E 011°40'6 2.4
2019-Jun-11 18:59N 42°06' E 011°47'0 0.0
2019-Jun-11 18:20N 42°06' E 011°47'55 3.0
2019-Jun-11 00:14N 42°23' E 010°37'415.9
2019-Jun-10 23:59N 42°26' E 010°33'1015.0
2019-Jun-10 23:19N 42°32' E 010°22'413.9
2019-Jun-10 22:59N 42°35' E 010°17'713.9
2019-Jun-10 22:28N 42°39' E 010°10'3613.4
2019-Jun-10 19:45N 43°16' E 010°10'414.6
2019-Jun-10 19:30N 43°19' E 010°10'714.5
2019-Jun-10 19:00N 43°26' E 010°13'611.2
2019-Jun-10 18:30N 43°32' E 010°15'3 5.8
2019-Jun-10 18:01N 43°33' E 010°18'0 0.2
2019-Jun-10 17:29N 43°34' E 010°18'0 0.0
2019-Jun-10 16:59N 43°34' E 010°18'0 0.0
2019-Jun-10 16:29N 43°34' E 010°18'0 0.0
2019-Jun-10 15:56N 43°34' E 010°18'0 0.0
2019-Jun-10 15:28N 43°34' E 010°18'0 0.0
2019-Jun-10 14:56N 43°34' E 010°18'0 0.0
2019-Jun-10 14:25N 43°34' E 010°18'0 0.0
2019-Jun-10 14:00N 43°34' E 010°18'0 0.0
2019-Jun-10 13:30N 43°34' E 010°18'0 0.0
2019-Jun-10 12:59N 43°34' E 010°18'0 0.0
2019-Jun-10 12:26N 43°34' E 010°18'0 0.0
2019-Jun-10 11:59N 43°34' E 010°18'0 0.0
2019-Jun-10 11:29N 43°34' E 010°18'0 0.0
2019-Jun-10 10:56N 43°34' E 010°18'0 0.0
2019-Jun-10 10:26N 43°34' E 010°18'0 0.0
2019-Jun-10 09:59N 43°34' E 010°18'0 0.0
2019-Jun-10 09:29N 43°34' E 010°18'0 0.0
2019-Jun-10 08:59N 43°34' E 010°18'0 0.0
2019-Jun-10 08:29N 43°34' E 010°18'0 0.0
2019-Jun-10 07:59N 43°34' E 010°18'0 0.0
2019-Jun-10 07:29N 43°34' E 010°18'0 0.0
2019-Jun-10 06:56N 43°34' E 010°18'0 0.0
2019-Jun-10 06:26N 43°34' E 010°18'0 0.0
2019-Jun-10 05:59N 43°34' E 010°18'0 0.2
2019-Jun-10 05:30N 43°33' E 010°18'3 6.0
2019-Jun-10 05:00N 43°31' E 010°15'510.5
2019-Jun-10 04:30N 43°29' E 010°08'612.8
2019-Jun-10 04:00N 43°30' E 009°60'612.9
2019-Jun-10 03:30N 43°31' E 009°51'612.7
2019-Jun-10 03:00N 43°32' E 009°42'612.6
2019-Jun-10 02:30N 43°32' E 009°33'713.1
2019-Jun-10 02:00N 43°33' E 009°24'713.3
2019-Jun-10 01:30N 43°34' E 009°15'713.8
2019-Jun-10 01:00N 43°34' E 009°06'713.5
2019-Jun-10 00:30N 43°35' E 008°57'713.3
2019-Jun-10 00:00N 43°35' E 008°47'713.3
2019-Jun-09 23:30N 43°36' E 008°38'612.9
2019-Jun-09 23:00N 43°36' E 008°29'612.2
2019-Jun-09 22:30N 43°37' E 008°21'612.0
2019-Jun-09 22:00N 43°38' E 008°13'611.9
2019-Jun-09 21:30N 43°38' E 008°04'611.8
2019-Jun-09 21:00N 43°39' E 007°56'611.9
2019-Jun-09 20:30N 43°40' E 007°48'611.8
2019-Jun-09 20:00N 43°42' E 007°40'612.0
2019-Jun-09 19:30N 43°43' E 007°32'5 9.5
2019-Jun-09 19:00N 43°44' E 007°26'0 0.2
2019-Jun-09 18:28N 43°44' E 007°26'0 0.0
2019-Jun-09 17:58N 43°44' E 007°26'0 0.0
2019-Jun-09 17:22N 43°44' E 007°26'0 0.0
2019-Jun-09 16:52N 43°44' E 007°26'0 0.0
2019-Jun-09 16:28N 43°44' E 007°26'0 0.0
2019-Jun-09 15:58N 43°44' E 007°26'0 0.0
2019-Jun-09 15:22N 43°44' E 007°26'0 0.0
2019-Jun-09 14:58N 43°44' E 007°26'0 0.0
2019-Jun-09 14:28N 43°44' E 007°26'0 0.0
2019-Jun-09 13:46N 43°44' E 007°26'0 0.0
2019-Jun-09 13:28N 43°44' E 007°26'0 0.0
2019-Jun-09 12:58N 43°44' E 007°26'0 0.0
2019-Jun-09 12:28N 43°44' E 007°26'0 0.0
2019-Jun-09 11:52N 43°44' E 007°26'0 0.0
2019-Jun-09 11:28N 43°44' E 007°26'0 0.0
2019-Jun-09 10:58N 43°44' E 007°26'0 0.0
2019-Jun-09 10:10N 43°44' E 007°26'0 0.0
2019-Jun-09 09:46N 43°44' E 007°26'0 0.0
2019-Jun-09 09:28N 43°44' E 007°26'0 0.0
2019-Jun-09 08:58N 43°44' E 007°26'0 0.0
2019-Jun-09 08:22N 43°44' E 007°26'0 0.0
2019-Jun-09 07:58N 43°44' E 007°26'0 0.0
2019-Jun-09 07:28N 43°44' E 007°26'0 0.0
2019-Jun-09 06:58N 43°44' E 007°26'0 0.0
2019-Jun-09 06:22N 43°44' E 007°26'0 0.0
2019-Jun-09 06:00N 43°44' E 007°26'0 0.4
2019-Jun-09 05:30N 43°44' E 007°26'4 7.3
2019-Jun-09 05:00N 43°41' E 007°27'1010.5
2019-Jun-09 04:00N 43°32' E 007°19'510.3
2019-Jun-09 03:30N 43°28' E 007°14'510.5
2019-Jun-09 03:01N 43°24' E 007°09'510.5
2019-Jun-09 02:31N 43°20' E 007°04'510.6
2019-Jun-09 02:00N 43°17' E 006°59'510.8
2019-Jun-09 01:30N 43°13' E 006°54'511.0
2019-Jun-09 01:00N 43°09' E 006°49'510.8
2019-Jun-09 00:30N 43°05' E 006°44'510.7
2019-Jun-09 00:00N 43°01' E 006°39'510.5
2019-Jun-08 23:31N 42°57' E 006°34'510.5
2019-Jun-08 23:00N 42°54' E 006°28'510.5
2019-Jun-08 22:30N 42°54' E 006°21'510.1
2019-Jun-08 21:59N 42°54' E 006°14'510.3
2019-Jun-08 21:30N 42°54' E 006°07'510.4
2019-Jun-08 21:00N 42°55' E 006°00'610.5
2019-Jun-08 20:29N 42°56' E 005°53'510.4
2019-Jun-08 20:00N 42°57' E 005°46'2611.3
2019-Jun-08 17:43N 43°08' E 005°15'312.1
2019-Jun-08 17:29N 43°10' E 005°11'511.2
2019-Jun-08 17:00N 43°15' E 005°09'612.2
2019-Jun-08 16:30N 43°19' E 005°15'4 7.3
2019-Jun-08 15:57N 43°21' E 005°20'0 0.0
2019-Jun-08 15:12N 43°21' E 005°20'0 0.0
2019-Jun-08 15:00N 43°21' E 005°20'0 0.0
2019-Jun-08 14:18N 43°21' E 005°20'0 0.0
2019-Jun-08 13:48N 43°21' E 005°20'0 0.0
2019-Jun-08 13:18N 43°21' E 005°20'0 0.0
2019-Jun-08 13:00N 43°21' E 005°20'0 0.0
2019-Jun-08 12:30N 43°21' E 005°20'0 0.0
2019-Jun-08 11:48N 43°21' E 005°20'0 0.0
2019-Jun-08 11:18N 43°21' E 005°20'0 0.0
2019-Jun-08 10:48N 43°21' E 005°20'0 0.0
2019-Jun-08 10:24N 43°21' E 005°20'0 0.0
2019-Jun-08 09:54N 43°21' E 005°20'0 0.0
2019-Jun-08 09:24N 43°21' E 005°20'0 0.0
2019-Jun-08 08:54N 43°21' E 005°20'0 0.0
2019-Jun-08 08:24N 43°21' E 005°20'0 0.0
2019-Jun-08 08:00N 43°21' E 005°20'0 0.0
2019-Jun-08 07:24N 43°21' E 005°20'0 0.0
2019-Jun-08 06:54N 43°21' E 005°20'0 0.0
2019-Jun-08 06:24N 43°21' E 005°20'0 0.0
2019-Jun-08 05:57N 43°21' E 005°20'0 0.0
2019-Jun-08 05:30N 43°21' E 005°20'0 0.5
2019-Jun-08 05:01N 43°21' E 005°20'4 7.2
2019-Jun-08 04:28N 43°19' E 005°15'511.9
2019-Jun-08 04:00N 43°15' E 005°11'713.3
2019-Jun-08 03:31N 43°09' E 005°07'14215.7
2019-Jun-07 18:29N 41°32' E 002°46'816.9
2019-Jun-07 18:00N 41°28' E 002°37'917.3
2019-Jun-07 17:30N 41°24' E 002°27'917.1
2019-Jun-07 17:00N 41°20' E 002°17'5 9.6
2019-Jun-07 16:30N 41°22' E 002°11'0 0.9
2019-Jun-07 16:00N 41°22' E 002°11'0 0.0
2019-Jun-07 15:30N 41°22' E 002°11'0 0.0
2019-Jun-07 15:00N 41°22' E 002°11'0 0.0
2019-Jun-07 14:30N 41°22' E 002°11'0 0.0
2019-Jun-07 14:00N 41°22' E 002°11'0 0.0
2019-Jun-07 13:24N 41°22' E 002°11'0 0.0
2019-Jun-07 13:00N 41°22' E 002°11'0 0.0
2019-Jun-07 12:30N 41°22' E 002°11'0 0.0
2019-Jun-07 12:00N 41°22' E 002°11'0 0.0
2019-Jun-07 11:27N 41°22' E 002°11'0 0.0
2019-Jun-07 10:57N 41°22' E 002°11'0 0.0
2019-Jun-07 10:27N 41°22' E 002°11'0 0.0
2019-Jun-07 10:00N 41°22' E 002°11'0 0.0
2019-Jun-07 09:27N 41°22' E 002°11'0 0.0
2019-Jun-07 08:57N 41°22' E 002°11'0 0.0
2019-Jun-07 08:30N 41°22' E 002°11'0 0.0
2019-Jun-07 08:00N 41°22' E 002°11'0 0.0
2019-Jun-07 07:27N 41°22' E 002°11'0 0.0
2019-Jun-07 07:00N 41°22' E 002°11'0 0.0
2019-Jun-07 06:27N 41°22' E 002°11'0 0.0
2019-Jun-07 06:00N 41°22' E 002°11'0 0.0
2019-Jun-07 05:30N 41°22' E 002°11'0 0.0
2019-Jun-07 05:00N 41°22' E 002°11'0 0.0
2019-Jun-07 04:30N 41°22' E 002°11'0 0.0
2019-Jun-07 04:00N 41°22' E 002°11'0 0.0
2019-Jun-07 03:30N 41°22' E 002°11'0 0.0
2019-Jun-07 02:57N 41°22' E 002°11'0 0.0
2019-Jun-07 02:30N 41°22' E 002°11'0 0.0
2019-Jun-07 01:48N 41°22' E 002°11'0 0.0
2019-Jun-07 01:30N 41°22' E 002°11'0 0.0
2019-Jun-07 01:00N 41°22' E 002°11'0 0.0
2019-Jun-07 00:30N 41°22' E 002°11'0 0.0
2019-Jun-06 23:51N 41°22' E 002°11'0 0.0
2019-Jun-06 23:30N 41°22' E 002°11'0 0.0
2019-Jun-06 23:00N 41°22' E 002°11'0 0.0
2019-Jun-06 22:27N 41°22' E 002°11'0 0.0
2019-Jun-06 22:00N 41°22' E 002°11'0 0.0
2019-Jun-06 21:30N 41°22' E 002°11'0 0.0
2019-Jun-06 21:00N 41°22' E 002°11'0 0.0
2019-Jun-06 20:27N 41°22' E 002°11'0 0.0
2019-Jun-06 20:00N 41°22' E 002°11'0 0.0
2019-Jun-06 19:30N 41°22' E 002°11'0 0.0
2019-Jun-06 19:00N 41°22' E 002°11'0 0.0
2019-Jun-06 18:30N 41°22' E 002°11'0 0.0
2019-Jun-06 18:00N 41°22' E 002°11'0 0.0
2019-Jun-06 17:27N 41°22' E 002°11'0 0.0
2019-Jun-06 16:54N 41°22' E 002°11'0 0.0
2019-Jun-06 16:30N 41°22' E 002°11'0 0.0
2019-Jun-06 16:00N 41°22' E 002°11'0 0.0
2019-Jun-06 15:30N 41°22' E 002°11'0 0.0
2019-Jun-06 15:00N 41°22' E 002°11'0 0.0
2019-Jun-06 14:30N 41°22' E 002°11'0 0.0
2019-Jun-06 14:00N 41°22' E 002°11'0 0.0
2019-Jun-06 13:30N 41°22' E 002°11'0 0.0
2019-Jun-06 13:00N 41°22' E 002°11'0 0.0
2019-Jun-06 12:30N 41°22' E 002°11'0 0.0
2019-Jun-06 11:57N 41°22' E 002°11'0 0.0
2019-Jun-06 11:30N 41°22' E 002°11'0 0.0
2019-Jun-06 11:00N 41°22' E 002°11'0 0.0
2019-Jun-06 10:30N 41°22' E 002°11'0 0.0
2019-Jun-06 10:00N 41°22' E 002°11'0 0.0
2019-Jun-06 09:27N 41°22' E 002°11'0 0.0
2019-Jun-06 09:00N 41°22' E 002°11'0 0.0
2019-Jun-06 08:30N 41°22' E 002°11'0 0.0
2019-Jun-06 07:57N 41°22' E 002°11'0 0.0
2019-Jun-06 07:24N 41°22' E 002°11'0 0.0
2019-Jun-06 07:00N 41°22' E 002°11'0 0.0
2019-Jun-06 06:30N 41°22' E 002°11'0 0.0
2019-Jun-06 05:51N 41°22' E 002°11'0 0.0
2019-Jun-06 05:27N 41°22' E 002°11'0 0.0
2019-Jun-06 04:57N 41°22' E 002°11'0 0.0
2019-Jun-06 04:27N 41°22' E 002°11'0 0.0
2019-Jun-06 04:00N 41°22' E 002°11'0 0.0
2019-Jun-06 03:27N 41°22' E 002°11'  

Dump ship's entire track history